الصفحة الرئيسية
METAR-TAF:

METAR-TAF

مطار :

مطار سينتاني

جايابورا, إندونيسيا

دائرة عرض: 02-34-37S, خط طول: 140-30-58E, ارتفاع: 88 متر

مراقبة الطقس الحالي

تاريخ ووقت الإصدار 38 دقيقة قبل الساعة 14:30UTC
ريح 1 عقدة من الغرب/الشمال الغربي
درجة الحرارة 25°درجة مئوية
الرطوبة 100%
ضغط 1010 hPa
الرؤية 10 كم أو أكثر
غيوم قليلة على ارتفاع 1300 قدم

METAR: WAJJ 161430Z 29001KT 9999 FEW013 25/25 Q1010

زمن: 22:08 (15:08 UTC)


TAF: مفقودة

أرصاد الطقس والتوقعات من أكثر من 4000 مطار (تقارير الطقس للمطار METAR والتنبؤ بالطقس بالمطارTAF).

المحطات المتاحة هي النقط الصفراء والحمراء على الخريطة.

حرك المؤشر فوق النقطة لمعرفة اسم المحطة.

ثم انقر لمعرفة أرصاد وتوقعات الطقس.

لتغيير الخارطة: اضغط على الأزرار الخضراء مع رمز الصليب الأسود للتكبير. على الزر الأخضر مع شرطة للتصغير، أو على الأسهم الخضراء للخرائط المجاورة.


METAR-TAF: